createdAt,value
2023-03-16T00:00:43.709Z,6.80
2023-03-16T00:03:11.253Z,6.80
2023-03-16T00:05:38.642Z,6.80
2023-03-16T00:08:05.668Z,6.70
2023-03-16T00:10:32.572Z,6.70
2023-03-16T00:12:59.483Z,6.70
2023-03-16T00:15:26.359Z,6.60
2023-03-16T00:17:53.241Z,6.60
2023-03-16T00:20:20.043Z,6.70
2023-03-16T00:22:46.993Z,6.70
2023-03-16T00:25:14.923Z,6.70
2023-03-16T00:27:41.967Z,6.70
2023-03-16T00:30:09.295Z,6.70
2023-03-16T00:32:37.126Z,6.70
2023-03-16T00:35:05.056Z,6.80
2023-03-16T00:37:37.098Z,6.80
2023-03-16T00:40:04.290Z,6.90
2023-03-16T00:42:31.878Z,6.90
2023-03-16T00:44:59.406Z,7.00
2023-03-16T00:47:30.737Z,6.90
2023-03-16T00:49:57.792Z,6.80
2023-03-16T00:52:25.389Z,6.70
2023-03-16T00:54:53.264Z,6.60
2023-03-16T00:57:21.890Z,6.40
2023-03-16T00:59:49.453Z,6.30
2023-03-16T01:02:17.562Z,6.20
2023-03-16T01:04:44.526Z,6.10
2023-03-16T01:07:13.063Z,6.00
2023-03-16T01:09:40.863Z,6.00
2023-03-16T01:12:08.955Z,6.00
2023-03-16T01:14:37.086Z,6.00
2023-03-16T01:17:04.763Z,6.00
2023-03-16T01:19:35.880Z,5.90
2023-03-16T01:22:06.158Z,5.90
2023-03-16T01:24:35.158Z,5.90
2023-03-16T01:27:02.926Z,5.90
2023-03-16T01:29:30.005Z,5.80
2023-03-16T01:31:57.387Z,5.80
2023-03-16T01:34:24.195Z,5.70
2023-03-16T01:36:51.266Z,5.70
2023-03-16T01:39:18.284Z,5.70
2023-03-16T01:41:46.264Z,5.70
2023-03-16T01:44:14.583Z,5.70
2023-03-16T01:46:42.734Z,5.70
2023-03-16T01:49:20.751Z,5.80
2023-03-16T01:51:58.788Z,5.90
2023-03-16T01:54:28.573Z,6.00
2023-03-16T01:57:07.508Z,6.20
2023-03-16T01:59:43.401Z,6.20
2023-03-16T02:02:11.557Z,6.30
2023-03-16T02:04:42.594Z,6.30
2023-03-16T02:07:09.780Z,6.40
2023-03-16T02:09:39.568Z,6.40
2023-03-16T02:12:07.076Z,6.30
2023-03-16T02:14:33.925Z,6.20
2023-03-16T02:17:00.872Z,6.10
2023-03-16T02:19:35.438Z,6.00
2023-03-16T02:22:03.916Z,5.90
2023-03-16T02:24:31.566Z,5.80
2023-03-16T02:27:02.063Z,5.70
2023-03-16T02:29:47.725Z,5.60
2023-03-16T02:32:15.454Z,5.60
2023-03-16T02:34:42.625Z,5.50
2023-03-16T02:37:10.005Z,5.50
2023-03-16T02:39:36.933Z,5.40
2023-03-16T02:42:04.612Z,5.40
2023-03-16T02:44:36.500Z,5.30
2023-03-16T02:47:06.240Z,5.30
2023-03-16T02:49:36.141Z,5.20
2023-03-16T02:52:03.723Z,5.20
2023-03-16T02:54:30.734Z,5.20
2023-03-16T02:56:57.694Z,5.10
2023-03-16T02:59:24.553Z,5.10
2023-03-16T03:01:51.750Z,5.10
2023-03-16T03:04:18.897Z,5.10
2023-03-16T03:06:45.883Z,5.00
2023-03-16T03:09:13.061Z,5.00
2023-03-16T03:11:40.523Z,5.00
2023-03-16T03:14:07.571Z,5.00
2023-03-16T03:16:34.674Z,5.00
2023-03-16T03:19:01.712Z,5.00
2023-03-16T03:21:28.798Z,5.00
2023-03-16T03:23:55.754Z,5.00
2023-03-16T03:26:24.857Z,4.90
2023-03-16T03:28:52.779Z,4.90
2023-03-16T03:31:21.686Z,4.90
2023-03-16T03:33:49.310Z,4.80
2023-03-16T03:36:16.227Z,4.80
2023-03-16T03:38:44.324Z,4.80
2023-03-16T03:41:11.185Z,4.80
2023-03-16T03:43:38.081Z,4.80
2023-03-16T03:46:05.196Z,4.80
2023-03-16T03:48:32.298Z,4.80
2023-03-16T03:50:59.296Z,4.90
2023-03-16T03:53:26.290Z,4.90
2023-03-16T03:55:53.225Z,4.80
2023-03-16T03:58:20.150Z,4.70
2023-03-16T04:00:46.994Z,4.70
2023-03-16T04:03:14.331Z,4.70
2023-03-16T04:05:41.957Z,4.60
2023-03-16T04:08:08.896Z,4.60
2023-03-16T04:10:35.812Z,4.60
2023-03-16T04:13:02.722Z,4.60
2023-03-16T04:15:30.421Z,4.50
2023-03-16T04:17:57.392Z,4.50
2023-03-16T04:20:24.347Z,4.50
2023-03-16T04:22:58.657Z,4.50
2023-03-16T04:25:30.767Z,4.40
2023-03-16T04:27:57.771Z,4.50
2023-03-16T04:30:26.458Z,4.50
2023-03-16T04:32:53.589Z,4.50
2023-03-16T04:35:20.539Z,4.50
2023-03-16T04:37:47.411Z,4.50
2023-03-16T04:40:16.957Z,4.50
2023-03-16T04:42:44.782Z,4.50
2023-03-16T04:45:12.220Z,4.50
2023-03-16T04:47:39.214Z,4.50
2023-03-16T04:50:06.656Z,4.50
2023-03-16T04:52:33.717Z,4.50
2023-03-16T04:55:00.655Z,4.50
2023-03-16T04:57:27.629Z,4.50
2023-03-16T04:59:54.505Z,4.50
2023-03-16T05:02:21.446Z,4.50
2023-03-16T05:04:48.620Z,4.50
2023-03-16T05:07:15.680Z,4.60
2023-03-16T05:09:42.532Z,4.50
2023-03-16T05:12:09.657Z,4.50
2023-03-16T05:14:36.593Z,4.40
2023-03-16T05:17:06.450Z,4.40
2023-03-16T05:19:33.898Z,4.40
2023-03-16T05:22:00.868Z,4.40
2023-03-16T05:24:27.795Z,4.30
2023-03-16T05:26:54.667Z,4.40
2023-03-16T05:29:21.570Z,4.40
2023-03-16T05:31:48.519Z,4.30
2023-03-16T05:34:15.434Z,4.30
2023-03-16T05:36:42.648Z,4.30
2023-03-16T05:39:09.709Z,4.20
2023-03-16T05:41:36.961Z,4.20
2023-03-16T05:44:04.819Z,4.20
2023-03-16T05:46:31.739Z,4.20
2023-03-16T05:48:58.727Z,4.20
2023-03-16T05:51:28.623Z,4.20
2023-03-16T05:53:58.632Z,4.20
2023-03-16T05:56:26.084Z,4.10
2023-03-16T05:58:53.759Z,4.10
2023-03-16T06:01:21.222Z,4.10
2023-03-16T06:03:49.186Z,4.10
2023-03-16T06:06:17.170Z,4.20
2023-03-16T06:08:45.014Z,4.20
2023-03-16T06:11:12.438Z,4.30
2023-03-16T06:13:39.613Z,4.30
2023-03-16T06:16:06.870Z,4.40
2023-03-16T06:18:34.771Z,4.50
2023-03-16T06:21:01.662Z,4.50
2023-03-16T06:23:28.547Z,4.60
2023-03-16T06:25:55.567Z,4.60
2023-03-16T06:28:22.863Z,4.70
2023-03-16T06:30:53.078Z,4.70
2023-03-16T06:33:20.081Z,4.80
2023-03-16T06:35:48.444Z,4.90
2023-03-16T06:38:15.681Z,4.90
2023-03-16T06:40:42.572Z,4.90
2023-03-16T06:43:09.564Z,5.00
2023-03-16T06:45:36.569Z,5.00
2023-03-16T06:48:03.605Z,5.10
2023-03-16T06:50:30.516Z,5.10
2023-03-16T06:52:57.395Z,5.10
2023-03-16T06:55:24.312Z,5.20
2023-03-16T06:57:52.018Z,5.20
2023-03-16T07:00:19.070Z,5.30
2023-03-16T07:02:46.020Z,5.40
2023-03-16T07:05:15.618Z,5.40
2023-03-16T07:07:43.118Z,5.50
2023-03-16T07:10:11.575Z,5.50
2023-03-16T07:12:38.597Z,5.50
2023-03-16T07:15:05.898Z,5.50
2023-03-16T07:17:32.741Z,5.50
2023-03-16T07:19:59.653Z,5.60
2023-03-16T07:22:26.605Z,5.60
2023-03-16T07:24:57.562Z,5.70
2023-03-16T07:27:25.230Z,5.70
2023-03-16T07:29:55.172Z,5.80
2023-03-16T07:32:22.393Z,5.90
2023-03-16T07:34:49.706Z,5.90
2023-03-16T07:37:18.371Z,6.00
2023-03-16T07:39:48.782Z,6.10
2023-03-16T07:42:15.865Z,6.20
2023-03-16T07:44:42.793Z,6.30
2023-03-16T07:47:12.382Z,6.30
2023-03-16T07:49:41.704Z,6.40
2023-03-16T07:52:08.913Z,6.50
2023-03-16T07:54:35.878Z,6.50
2023-03-16T07:57:02.828Z,6.60
2023-03-16T07:59:29.802Z,6.60
2023-03-16T08:01:56.709Z,6.60
2023-03-16T08:04:23.662Z,6.70
2023-03-16T08:06:52.561Z,6.80
2023-03-16T08:09:19.504Z,6.90
2023-03-16T08:11:46.482Z,7.00
2023-03-16T08:14:13.424Z,7.00
2023-03-16T08:16:40.356Z,7.10
2023-03-16T08:19:07.286Z,7.20
2023-03-16T08:21:40.096Z,7.30
2023-03-16T08:24:15.616Z,7.50
2023-03-16T08:26:42.743Z,7.60
2023-03-16T08:29:09.705Z,7.70
2023-03-16T08:31:36.812Z,7.90
2023-03-16T08:34:04.068Z,8.00
2023-03-16T08:36:31.171Z,8.20
2023-03-16T08:39:06.551Z,8.30
2023-03-16T08:41:35.019Z,8.40
2023-03-16T08:44:03.388Z,8.50
2023-03-16T08:46:31.139Z,8.60
2023-03-16T08:48:58.156Z,8.80
2023-03-16T08:51:25.248Z,8.90
2023-03-16T08:53:52.993Z,9.00
2023-03-16T08:56:19.987Z,9.10
2023-03-16T08:58:47.485Z,9.20
2023-03-16T09:01:17.639Z,9.40
2023-03-16T09:03:46.674Z,9.50
2023-03-16T09:06:15.112Z,9.60
2023-03-16T09:08:42.136Z,9.80
2023-03-16T09:11:11.524Z,9.90
2023-03-16T09:13:38.910Z,10.00
2023-03-16T09:16:06.687Z,10.20
2023-03-16T09:18:35.471Z,10.30
2023-03-16T09:21:04.155Z,10.50
2023-03-16T09:23:31.656Z,10.70
2023-03-16T09:26:03.072Z,10.90
2023-03-16T09:28:31.580Z,11.10
2023-03-16T09:30:59.154Z,11.30
2023-03-16T09:33:27.257Z,11.60
2023-03-16T09:35:56.061Z,11.80
2023-03-16T09:38:24.985Z,11.90
2023-03-16T09:40:57.621Z,12.10
2023-03-16T09:43:24.458Z,12.30
2023-03-16T09:46:00.447Z,12.40
2023-03-16T09:48:29.418Z,12.50
2023-03-16T09:50:56.833Z,12.50
2023-03-16T09:53:26.951Z,12.60
2023-03-16T09:55:55.857Z,12.60
2023-03-16T09:58:23.186Z,12.50
2023-03-16T10:01:07.586Z,12.50
2023-03-16T10:03:49.674Z,12.50
2023-03-16T10:06:17.015Z,12.60
2023-03-16T10:08:45.430Z,12.60
2023-03-16T10:11:14.954Z,12.60
2023-03-16T10:14:19.085Z,12.60
2023-03-16T10:17:06.434Z,12.60
2023-03-16T10:19:43.679Z,12.70
2023-03-16T10:22:33.854Z,12.80
2023-03-16T10:25:09.639Z,12.80
2023-03-16T10:27:38.559Z,12.80
2023-03-16T10:30:14.966Z,12.80
2023-03-16T10:32:42.495Z,12.80
2023-03-16T10:35:28.517Z,12.70
2023-03-16T10:37:56.830Z,12.60
2023-03-16T10:40:23.686Z,12.60
2023-03-16T10:42:50.739Z,12.60
2023-03-16T10:45:32.277Z,12.70
2023-03-16T10:48:16.729Z,12.70
2023-03-16T10:50:50.179Z,12.80
2023-03-16T10:53:20.053Z,13.00
2023-03-16T10:55:47.558Z,13.10
2023-03-16T10:58:25.476Z,13.20
2023-03-16T11:00:53.782Z,13.40
2023-03-16T11:03:29.248Z,13.50
2023-03-16T11:05:59.264Z,13.70
2023-03-16T11:08:27.482Z,13.80
2023-03-16T11:10:57.787Z,13.90
2023-03-16T11:13:28.423Z,14.00
2023-03-16T11:15:56.094Z,14.20
2023-03-16T11:18:27.197Z,14.30
2023-03-16T11:20:55.350Z,14.50
2023-03-16T11:23:28.720Z,14.60
2023-03-16T11:25:56.940Z,14.70
2023-03-16T11:28:43.401Z,14.80
2023-03-16T11:31:17.315Z,14.80
2023-03-16T11:33:44.419Z,14.90
2023-03-16T11:36:22.448Z,14.90
2023-03-16T11:39:01.551Z,15.00
2023-03-16T11:41:47.121Z,15.00
2023-03-16T11:44:14.064Z,15.10
2023-03-16T11:46:44.760Z,15.10
2023-03-16T11:49:22.404Z,15.00
2023-03-16T11:51:58.582Z,15.00
2023-03-16T11:54:26.193Z,15.10
2023-03-16T11:56:54.945Z,15.10
2023-03-16T11:59:27.761Z,15.10
2023-03-16T12:02:07.384Z,15.10
2023-03-16T12:04:40.259Z,15.00
2023-03-16T12:07:25.992Z,15.10
2023-03-16T12:09:59.220Z,15.20
2023-03-16T12:12:29.684Z,15.20
2023-03-16T12:15:16.835Z,15.20
2023-03-16T12:17:44.350Z,15.00
2023-03-16T12:20:26.414Z,15.00
2023-03-16T12:23:22.967Z,15.00
2023-03-16T12:25:50.688Z,15.00
2023-03-16T12:28:23.859Z,15.10
2023-03-16T12:30:58.465Z,15.10
2023-03-16T12:33:46.061Z,15.10
2023-03-16T12:36:17.161Z,15.20
2023-03-16T12:38:44.040Z,15.30
2023-03-16T12:41:17.737Z,15.30
2023-03-16T12:43:47.794Z,15.40
2023-03-16T12:46:33.905Z,15.50
2023-03-16T12:49:02.445Z,15.50
2023-03-16T12:51:33.016Z,15.60
2023-03-16T12:54:00.746Z,15.50
2023-03-16T12:56:32.525Z,15.50
2023-03-16T12:59:01.072Z,15.50
2023-03-16T13:01:29.545Z,15.50
2023-03-16T13:04:06.419Z,15.40
2023-03-16T13:06:36.481Z,15.20
2023-03-16T13:09:04.644Z,15.20
2023-03-16T13:11:41.997Z,15.10
2023-03-16T13:14:12.904Z,15.10
2023-03-16T13:16:40.386Z,15.00
2023-03-16T13:19:25.470Z,15.00
2023-03-16T13:22:04.513Z,14.90
2023-03-16T13:24:40.147Z,14.90
2023-03-16T13:27:15.937Z,14.90
2023-03-16T13:29:52.366Z,14.90
2023-03-16T13:32:19.799Z,14.90
2023-03-16T13:34:50.797Z,14.80
2023-03-16T13:37:19.723Z,14.80
2023-03-16T13:39:56.150Z,14.70
2023-03-16T13:42:24.174Z,14.60
2023-03-16T13:44:54.591Z,14.50
2023-03-16T13:47:21.616Z,14.40
2023-03-16T13:49:55.333Z,14.40
2023-03-16T13:52:25.709Z,14.30
2023-03-16T13:54:53.405Z,14.20
2023-03-16T13:57:23.590Z,14.20
2023-03-16T13:59:50.815Z,14.10
2023-03-16T14:02:19.084Z,14.00
2023-03-16T14:04:46.046Z,13.90
2023-03-16T14:07:20.717Z,13.80
2023-03-16T14:09:49.868Z,13.80
2023-03-16T14:12:18.571Z,13.70
2023-03-16T14:14:50.891Z,13.60
2023-03-16T14:17:18.740Z,13.50
2023-03-16T14:19:52.994Z,13.40
2023-03-16T14:22:23.597Z,13.20
2023-03-16T14:24:55.145Z,13.20
2023-03-16T14:27:40.725Z,13.10
2023-03-16T14:30:19.568Z,13.10
2023-03-16T14:33:02.694Z,13.00
2023-03-16T14:35:32.084Z,13.00
2023-03-16T14:38:19.108Z,12.90
2023-03-16T14:40:58.189Z,12.80
2023-03-16T14:43:29.812Z,12.80
2023-03-16T14:45:57.761Z,12.70
2023-03-16T14:48:25.387Z,12.70
2023-03-16T14:50:57.691Z,12.60
2023-03-16T14:53:28.448Z,12.70
2023-03-16T14:55:56.869Z,12.60
2023-03-16T14:58:24.180Z,12.60
2023-03-16T15:00:55.039Z,12.50
2023-03-16T15:03:23.990Z,12.50
2023-03-16T15:05:51.860Z,12.40
2023-03-16T15:08:27.485Z,12.40
2023-03-16T15:10:55.270Z,12.30
2023-03-16T15:13:40.680Z,12.30
2023-03-16T15:16:10.089Z,12.30
2023-03-16T15:18:39.351Z,12.20
2023-03-16T15:21:17.547Z,12.10
2023-03-16T15:23:45.213Z,12.10
2023-03-16T15:26:13.284Z,12.10
2023-03-16T15:28:40.585Z,12.00
2023-03-16T15:31:07.614Z,12.00
2023-03-16T15:33:34.574Z,11.90
2023-03-16T15:36:02.607Z,11.90
2023-03-16T15:38:32.568Z,11.90
2023-03-16T15:40:59.806Z,11.80
2023-03-16T15:43:29.023Z,11.80
2023-03-16T15:45:57.717Z,11.70
2023-03-16T15:48:24.725Z,11.70
2023-03-16T15:50:57.697Z,11.60
2023-03-16T15:53:30.609Z,11.50
2023-03-16T15:56:04.834Z,11.50
2023-03-16T15:58:32.694Z,11.40
2023-03-16T16:01:00.193Z,11.30
2023-03-16T16:03:27.831Z,11.30
2023-03-16T16:05:55.038Z,11.20
2023-03-16T16:08:22.688Z,11.20
2023-03-16T16:10:50.360Z,11.20
2023-03-16T16:13:24.844Z,11.10
2023-03-16T16:15:54.783Z,11.10
2023-03-16T16:18:24.694Z,11.10
2023-03-16T16:20:51.709Z,11.00
2023-03-16T16:23:19.456Z,11.00
2023-03-16T16:25:46.713Z,11.00
2023-03-16T16:28:17.763Z,11.00
2023-03-16T16:30:44.700Z,11.00
2023-03-16T16:33:22.195Z,10.90
2023-03-16T16:35:49.137Z,10.90
2023-03-16T16:38:16.184Z,10.80
2023-03-16T16:40:46.229Z,10.80
2023-03-16T16:43:19.086Z,10.80
2023-03-16T16:45:46.147Z,10.80
2023-03-16T16:48:39.587Z,10.70
2023-03-16T16:51:09.893Z,10.70
2023-03-16T16:53:36.829Z,10.70
2023-03-16T16:56:03.935Z,10.70
2023-03-16T16:58:31.093Z,10.60
2023-03-16T17:00:59.208Z,10.60
2023-03-16T17:03:30.290Z,10.60
2023-03-16T17:05:58.482Z,10.60
2023-03-16T17:08:26.107Z,10.50
2023-03-16T17:10:54.015Z,10.50
2023-03-16T17:13:25.095Z,10.40
2023-03-16T17:15:52.825Z,10.40
2023-03-16T17:18:19.939Z,10.40
2023-03-16T17:20:47.076Z,10.30
2023-03-16T17:23:35.024Z,10.30
2023-03-16T17:26:06.959Z,10.30
2023-03-16T17:28:36.165Z,10.20
2023-03-16T17:31:03.124Z,10.20
2023-03-16T17:33:30.123Z,10.20
2023-03-16T17:35:57.174Z,10.10
2023-03-16T17:38:25.219Z,10.10
2023-03-16T17:40:52.797Z,10.00
2023-03-16T17:43:21.592Z,10.00
2023-03-16T17:45:49.842Z,10.00
2023-03-16T17:48:18.135Z,9.90
2023-03-16T17:50:48.250Z,9.80
2023-03-16T17:53:16.404Z,9.80
2023-03-16T17:55:43.912Z,9.60
2023-03-16T17:58:30.351Z,9.60
2023-03-16T18:00:57.499Z,9.50
2023-03-16T18:03:26.643Z,9.50
2023-03-16T18:05:54.503Z,9.50
2023-03-16T18:08:25.960Z,9.40
2023-03-16T18:10:54.299Z,9.40
2023-03-16T18:13:23.602Z,9.40
2023-03-16T18:15:51.204Z,9.30
2023-03-16T18:18:21.627Z,9.30
2023-03-16T18:20:50.991Z,9.20
2023-03-16T18:23:19.494Z,9.20
2023-03-16T18:25:47.773Z,9.10
2023-03-16T18:28:17.661Z,9.10
2023-03-16T18:30:52.189Z,9.00
2023-03-16T18:33:27.790Z,9.00
2023-03-16T18:35:56.191Z,9.00
2023-03-16T18:38:29.020Z,9.00
2023-03-16T18:40:56.094Z,9.00
2023-03-16T18:43:26.125Z,8.90
2023-03-16T18:45:54.935Z,8.90
2023-03-16T18:48:29.971Z,8.80
2023-03-16T18:50:57.277Z,8.80
2023-03-16T18:53:24.222Z,8.70
2023-03-16T18:55:52.063Z,8.70
2023-03-16T18:58:22.109Z,8.70
2023-03-16T19:00:56.720Z,8.60
2023-03-16T19:03:28.648Z,8.60
2023-03-16T19:06:00.020Z,8.60
2023-03-16T19:08:27.863Z,8.60
2023-03-16T19:10:56.725Z,8.60
2023-03-16T19:13:24.441Z,8.60
2023-03-16T19:15:52.571Z,8.60
2023-03-16T19:18:20.306Z,8.60
2023-03-16T19:20:50.226Z,8.60
2023-03-16T19:23:23.919Z,8.50
2023-03-16T19:25:51.596Z,8.50
2023-03-16T19:28:34.654Z,8.50
2023-03-16T19:31:02.367Z,8.50
2023-03-16T19:33:29.690Z,8.50
2023-03-16T19:35:57.064Z,8.40
2023-03-16T19:38:25.088Z,8.40
2023-03-16T19:40:56.570Z,8.40
2023-03-16T19:43:23.975Z,8.40
2023-03-16T19:45:51.637Z,8.40
2023-03-16T19:48:23.073Z,8.40
2023-03-16T19:50:51.180Z,8.30
2023-03-16T19:53:19.534Z,8.30
2023-03-16T19:55:47.515Z,8.30
2023-03-16T19:58:31.276Z,8.30
2023-03-16T20:00:59.179Z,8.30
2023-03-16T20:03:26.333Z,8.30
2023-03-16T20:05:53.445Z,8.40
2023-03-16T20:08:22.911Z,8.40
2023-03-16T20:10:50.131Z,8.40
2023-03-16T20:13:17.234Z,8.40
2023-03-16T20:15:44.247Z,8.50
2023-03-16T20:18:13.854Z,8.50
2023-03-16T20:20:41.359Z,8.50
2023-03-16T20:23:28.254Z,8.50
2023-03-16T20:25:56.712Z,8.50
2023-03-16T20:28:25.218Z,8.50
2023-03-16T20:30:52.822Z,8.50
2023-03-16T20:33:24.385Z,8.50
2023-03-16T20:35:53.585Z,8.50
2023-03-16T20:38:22.165Z,8.50
2023-03-16T20:40:50.472Z,8.50
2023-03-16T20:43:25.488Z,8.50
2023-03-16T20:45:53.728Z,8.50
2023-03-16T20:48:21.349Z,8.50
2023-03-16T20:50:48.483Z,8.50
2023-03-16T20:53:15.476Z,8.60
2023-03-16T20:55:42.816Z,8.60
2023-03-16T20:58:36.434Z,8.60
2023-03-16T21:01:04.089Z,8.60
2023-03-16T21:03:31.127Z,8.50
2023-03-16T21:05:59.977Z,8.50
2023-03-16T21:08:27.731Z,8.50
2023-03-16T21:10:56.830Z,8.50
2023-03-16T21:13:31.140Z,8.50
2023-03-16T21:15:58.805Z,8.50
2023-03-16T21:18:26.740Z,8.50
2023-03-16T21:20:56.308Z,8.40
2023-03-16T21:23:23.912Z,8.50
2023-03-16T21:25:53.463Z,8.40
2023-03-16T21:28:20.820Z,8.40
2023-03-16T21:30:58.019Z,8.40
2023-03-16T21:33:30.237Z,8.40
2023-03-16T21:35:57.781Z,8.40
2023-03-16T21:38:26.203Z,8.40
2023-03-16T21:40:53.585Z,8.40
2023-03-16T21:43:20.839Z,8.50
2023-03-16T21:45:48.865Z,8.50
2023-03-16T21:48:25.906Z,8.40
2023-03-16T21:50:54.013Z,8.40
2023-03-16T21:53:22.443Z,8.30
2023-03-16T21:55:50.036Z,8.30
2023-03-16T21:58:19.912Z,8.30
2023-03-16T22:00:47.593Z,8.30
2023-03-16T22:03:22.735Z,8.30
2023-03-16T22:05:50.974Z,8.30
2023-03-16T22:08:22.471Z,8.20
2023-03-16T22:10:50.031Z,8.20
2023-03-16T22:13:19.508Z,8.20
2023-03-16T22:15:48.863Z,8.20
2023-03-16T22:18:29.681Z,8.20
2023-03-16T22:20:57.344Z,8.20
2023-03-16T22:23:34.407Z,8.20
2023-03-16T22:26:05.874Z,8.20
2023-03-16T22:28:33.159Z,8.20
2023-03-16T22:31:01.955Z,8.20
2023-03-16T22:33:30.041Z,8.20
2023-03-16T22:36:04.479Z,8.20
2023-03-16T22:38:31.393Z,8.20
2023-03-16T22:40:58.244Z,8.20
2023-03-16T22:43:29.868Z,8.10
2023-03-16T22:45:56.962Z,8.10
2023-03-16T22:48:25.659Z,8.00
2023-03-16T22:50:53.103Z,8.00
2023-03-16T22:53:29.185Z,7.90
2023-03-16T22:55:56.793Z,7.90
2023-03-16T22:58:29.609Z,7.80
2023-03-16T23:00:56.882Z,7.80
2023-03-16T23:03:24.704Z,7.80
2023-03-16T23:05:52.069Z,7.80
2023-03-16T23:08:21.805Z,7.70
2023-03-16T23:10:49.286Z,7.70
2023-03-16T23:13:18.048Z,7.70
2023-03-16T23:15:45.998Z,7.70
2023-03-16T23:18:23.034Z,7.70
2023-03-16T23:20:50.881Z,7.70
2023-03-16T23:23:18.439Z,7.70
2023-03-16T23:25:46.249Z,7.70
2023-03-16T23:28:16.237Z,7.70
2023-03-16T23:30:43.172Z,7.70
2023-03-16T23:33:11.291Z,7.70
2023-03-16T23:35:38.771Z,7.60
2023-03-16T23:38:05.865Z,7.60
2023-03-16T23:40:35.648Z,7.60
2023-03-16T23:43:02.611Z,7.60
2023-03-16T23:45:42.322Z,7.70
2023-03-16T23:48:20.790Z,7.70
2023-03-16T23:50:48.657Z,7.70
2023-03-16T23:53:20.032Z,7.70
2023-03-16T23:55:48.069Z,7.80
2023-03-16T23:58:16.368Z,7.80
